createdAt,value
2024-01-22T00:00:22.845Z,58.54
2024-01-22T00:02:50.520Z,58.51
2024-01-22T00:05:18.050Z,58.94
2024-01-22T00:07:45.711Z,59.21
2024-01-22T00:10:13.781Z,59.24
2024-01-22T00:12:41.339Z,59.17
2024-01-22T00:15:08.965Z,59.34
2024-01-22T00:17:36.742Z,59.58
2024-01-22T00:20:04.524Z,59.58
2024-01-22T00:22:32.099Z,59.61
2024-01-22T00:24:59.752Z,59.67
2024-01-22T00:27:27.404Z,59.74
2024-01-22T00:29:55.124Z,59.25
2024-01-22T00:32:22.797Z,59.55
2024-01-22T00:34:50.493Z,59.66
2024-01-22T00:37:18.162Z,59.95
2024-01-22T00:39:46.143Z,59.47
2024-01-22T00:42:13.925Z,59.85
2024-01-22T00:44:41.771Z,60.05
2024-01-22T00:47:09.333Z,59.85
2024-01-22T00:49:36.939Z,59.93
2024-01-22T00:52:04.535Z,60.16
2024-01-22T00:54:32.202Z,60.03
2024-01-22T00:56:59.799Z,60.23
2024-01-22T00:59:27.620Z,60.17
2024-01-22T01:01:55.182Z,60.47
2024-01-22T01:04:22.789Z,60.34
2024-01-22T01:06:50.400Z,60.39
2024-01-22T01:09:18.087Z,60.45
2024-01-22T01:11:45.752Z,60.70
2024-01-22T01:14:13.487Z,60.51
2024-01-22T01:16:41.149Z,60.92
2024-01-22T01:19:09.241Z,60.78
2024-01-22T01:21:36.981Z,60.73
2024-01-22T01:24:04.686Z,60.87
2024-01-22T01:26:32.388Z,60.83
2024-01-22T01:28:59.971Z,60.95
2024-01-22T01:31:27.519Z,60.93
2024-01-22T01:33:55.311Z,60.88
2024-01-22T01:36:23.162Z,60.88
2024-01-22T01:38:50.845Z,60.78
2024-01-22T01:41:18.503Z,60.88
2024-01-22T01:43:46.454Z,60.76
2024-01-22T01:46:14.004Z,60.46
2024-01-22T01:48:41.718Z,60.46
2024-01-22T01:51:09.614Z,60.48
2024-01-22T01:53:37.317Z,60.34
2024-01-22T01:56:04.969Z,60.09
2024-01-22T01:58:32.519Z,60.18
2024-01-22T02:01:00.156Z,59.83
2024-01-22T02:03:28.296Z,59.73
2024-01-22T02:05:56.065Z,59.54
2024-01-22T02:08:23.678Z,59.58
2024-01-22T02:10:51.341Z,59.51
2024-01-22T02:13:18.893Z,59.45
2024-01-22T02:15:46.567Z,59.51
2024-01-22T02:18:14.283Z,59.46
2024-01-22T02:20:42.162Z,59.38
2024-01-22T02:23:09.842Z,59.35
2024-01-22T02:25:37.818Z,59.29
2024-01-22T02:28:05.386Z,58.81
2024-01-22T02:30:33.087Z,58.73
2024-01-22T02:33:00.878Z,58.78
2024-01-22T02:35:28.572Z,58.66
2024-01-22T02:37:56.126Z,58.37
2024-01-22T02:40:23.681Z,58.15
2024-01-22T02:42:51.340Z,58.21
2024-01-22T02:45:19.413Z,58.44
2024-01-22T02:47:47.256Z,58.21
2024-01-22T02:50:15.150Z,58.03
2024-01-22T02:52:42.809Z,58.18
2024-01-22T02:55:10.377Z,57.93
2024-01-22T02:57:38.023Z,58.00
2024-01-22T03:00:05.929Z,57.89
2024-01-22T03:02:33.816Z,57.87
2024-01-22T03:05:01.832Z,57.52
2024-01-22T03:07:29.589Z,57.28
2024-01-22T03:09:57.158Z,57.17
2024-01-22T03:12:24.730Z,57.13
2024-01-22T03:14:52.423Z,56.76
2024-01-22T03:17:20.121Z,56.94
2024-01-22T03:19:47.938Z,56.95
2024-01-22T03:22:15.781Z,57.09
2024-01-22T03:24:43.320Z,56.72
2024-01-22T03:27:11.203Z,56.63
2024-01-22T03:29:38.968Z,56.26
2024-01-22T03:32:06.496Z,56.35
2024-01-22T03:34:34.218Z,56.10
2024-01-22T03:37:01.952Z,56.27
2024-01-22T03:39:29.626Z,55.95
2024-01-22T03:41:57.268Z,56.05
2024-01-22T03:44:24.906Z,55.82
2024-01-22T03:46:52.774Z,55.62
2024-01-22T03:49:20.896Z,55.20
2024-01-22T03:51:48.713Z,55.15
2024-01-22T03:54:16.368Z,55.12
2024-01-22T03:56:44.057Z,55.16
2024-01-22T03:59:11.704Z,55.00
2024-01-22T04:01:39.463Z,54.98
2024-01-22T04:04:07.151Z,54.97
2024-01-22T04:06:35.251Z,54.99
2024-01-22T04:09:03.189Z,54.87
2024-01-22T04:11:30.948Z,55.19
2024-01-22T04:13:58.684Z,54.87
2024-01-22T04:16:26.587Z,55.17
2024-01-22T04:18:54.265Z,55.11
2024-01-22T04:21:22.131Z,55.06
2024-01-22T04:23:49.991Z,55.26
2024-01-22T04:26:17.910Z,55.43
2024-01-22T04:28:45.480Z,55.56
2024-01-22T04:31:13.444Z,55.05
2024-01-22T04:33:41.219Z,54.87
2024-01-22T04:36:09.191Z,54.91
2024-01-22T04:38:36.979Z,54.88
2024-01-22T04:41:04.607Z,54.65
2024-01-22T04:43:32.358Z,54.61
2024-01-22T04:46:00.041Z,54.71
2024-01-22T04:48:27.812Z,54.22
2024-01-22T04:50:55.971Z,54.53
2024-01-22T04:53:23.820Z,54.68
2024-01-22T04:55:51.376Z,54.78
2024-01-22T04:58:18.951Z,54.67
2024-01-22T05:00:46.540Z,54.85
2024-01-22T05:03:14.610Z,54.78
2024-01-22T05:05:42.520Z,54.71
2024-01-22T05:08:10.213Z,54.80
2024-01-22T05:10:38.280Z,54.12
2024-01-22T05:13:06.046Z,54.47
2024-01-22T05:15:33.709Z,54.54
2024-01-22T05:18:01.344Z,54.39
2024-01-22T05:20:29.218Z,54.72
2024-01-22T05:22:56.873Z,54.65
2024-01-22T05:25:24.657Z,54.87
2024-01-22T05:27:52.312Z,54.59
2024-01-22T05:30:20.064Z,54.47
2024-01-22T05:32:50.306Z,54.51
2024-01-22T05:35:19.074Z,54.55
2024-01-22T05:37:46.749Z,54.26
2024-01-22T05:40:15.297Z,54.03
2024-01-22T05:42:44.458Z,54.38
2024-01-22T05:45:14.739Z,54.15
2024-01-22T05:47:42.578Z,54.26
2024-01-22T05:50:10.398Z,53.98
2024-01-22T05:52:38.439Z,53.96
2024-01-22T05:55:06.236Z,54.27
2024-01-22T05:57:33.976Z,54.04
2024-01-22T06:00:01.613Z,53.81
2024-01-22T06:02:29.502Z,53.95
2024-01-22T06:04:57.261Z,53.70
2024-01-22T06:07:24.994Z,53.59
2024-01-22T06:09:58.928Z,53.73
2024-01-22T06:12:30.383Z,53.43
2024-01-22T06:14:57.972Z,53.20
2024-01-22T06:17:25.661Z,53.43
2024-01-22T06:19:53.642Z,52.72
2024-01-22T06:22:21.443Z,52.82
2024-01-22T06:24:49.407Z,52.96
2024-01-22T06:27:17.241Z,52.65
2024-01-22T06:29:44.941Z,52.67
2024-01-22T06:32:13.141Z,52.45
2024-01-22T06:34:41.227Z,52.35
2024-01-22T06:37:09.036Z,52.33
2024-01-22T06:39:36.910Z,52.37
2024-01-22T06:42:04.809Z,52.11
2024-01-22T06:44:32.645Z,51.87
2024-01-22T06:47:00.507Z,51.78
2024-01-22T06:49:28.476Z,51.63
2024-01-22T06:51:56.369Z,51.43
2024-01-22T06:54:24.466Z,51.46
2024-01-22T06:56:52.225Z,51.00
2024-01-22T06:59:19.843Z,50.74
2024-01-22T07:01:47.418Z,50.17
2024-01-22T07:04:15.317Z,50.20
2024-01-22T07:06:43.099Z,49.70
2024-01-22T07:09:10.631Z,49.51
2024-01-22T07:11:38.690Z,49.50
2024-01-22T07:14:06.449Z,48.78
2024-01-22T07:16:34.398Z,48.94
2024-01-22T07:19:02.238Z,48.08
2024-01-22T07:21:30.235Z,48.39
2024-01-22T07:23:57.959Z,48.26
2024-01-22T07:26:25.744Z,47.75
2024-01-22T07:28:53.611Z,47.30
2024-01-22T07:31:21.173Z,47.21
2024-01-22T07:33:49.153Z,46.60
2024-01-22T07:36:16.952Z,46.60
2024-01-22T07:38:45.044Z,46.49
2024-01-22T07:41:13.755Z,45.98
2024-01-22T07:43:41.319Z,45.92
2024-01-22T07:46:08.973Z,45.94
2024-01-22T07:48:36.628Z,45.85
2024-01-22T07:51:04.434Z,45.41
2024-01-22T07:53:32.063Z,45.70
2024-01-22T07:55:59.737Z,45.69
2024-01-22T07:58:27.293Z,44.83
2024-01-22T08:00:55.017Z,45.60
2024-01-22T08:03:22.793Z,44.86
2024-01-22T08:05:50.854Z,44.80
2024-01-22T08:08:18.544Z,44.93
2024-01-22T08:10:46.213Z,43.99
2024-01-22T08:13:14.082Z,44.70
2024-01-22T08:15:41.948Z,44.67
2024-01-22T08:18:09.556Z,44.61
2024-01-22T08:20:37.383Z,43.95
2024-01-22T08:23:05.034Z,43.66
2024-01-22T08:25:32.693Z,43.78
2024-01-22T08:28:00.462Z,43.60
2024-01-22T08:30:28.447Z,43.18
2024-01-22T08:32:56.584Z,43.02
2024-01-22T08:35:24.665Z,42.58
2024-01-22T08:37:52.330Z,42.00
2024-01-22T08:40:20.190Z,41.89
2024-01-22T08:42:47.958Z,42.15
2024-01-22T08:45:15.728Z,41.88
2024-01-22T08:47:43.530Z,41.99
2024-01-22T08:50:11.257Z,41.46
2024-01-22T08:52:38.911Z,41.40
2024-01-22T08:55:06.565Z,41.92
2024-01-22T08:57:34.233Z,41.08
2024-01-22T09:00:01.897Z,41.50
2024-01-22T09:02:29.850Z,41.38
2024-01-22T09:04:57.433Z,41.46
2024-01-22T09:07:25.082Z,41.25
2024-01-22T09:09:52.754Z,41.57
2024-01-22T09:12:20.354Z,41.62
2024-01-22T09:14:48.179Z,41.43
2024-01-22T09:17:15.724Z,41.16
2024-01-22T09:19:43.788Z,41.64
2024-01-22T09:22:11.452Z,40.52
2024-01-22T09:24:39.112Z,40.43
2024-01-22T09:27:06.915Z,40.70
2024-01-22T09:29:34.744Z,40.35
2024-01-22T09:32:02.403Z,39.57
2024-01-22T09:34:30.151Z,39.03
2024-01-22T09:36:57.829Z,39.02
2024-01-22T09:39:25.523Z,39.32
2024-01-22T09:41:53.534Z,38.42
2024-01-22T09:44:21.220Z,38.25
2024-01-22T09:46:48.781Z,38.31
2024-01-22T09:49:16.772Z,38.11
2024-01-22T09:51:44.413Z,37.77
2024-01-22T09:54:12.166Z,37.98
2024-01-22T09:56:39.865Z,37.76
2024-01-22T09:59:07.400Z,38.43
2024-01-22T10:01:35.298Z,38.30
2024-01-22T10:04:02.981Z,38.95
2024-01-22T10:06:30.772Z,39.31
2024-01-22T10:08:58.487Z,39.86
2024-01-22T10:11:26.327Z,39.86
2024-01-22T10:13:54.227Z,39.61
2024-01-22T10:16:21.865Z,39.85
2024-01-22T10:18:49.810Z,39.18
2024-01-22T10:21:17.584Z,39.56
2024-01-22T10:23:45.156Z,39.38
2024-01-22T10:26:13.206Z,39.46
2024-01-22T10:28:40.866Z,39.15
2024-01-22T10:31:08.536Z,39.09
2024-01-22T10:33:36.322Z,38.71
2024-01-22T10:36:04.175Z,39.22
2024-01-22T10:38:31.728Z,38.92
2024-01-22T10:41:00.309Z,38.75
2024-01-22T10:43:28.565Z,38.45
2024-01-22T10:45:57.845Z,38.52
2024-01-22T10:48:37.026Z,38.66
2024-01-22T10:51:10.343Z,38.77
2024-01-22T10:53:38.323Z,38.27
2024-01-22T10:56:07.098Z,38.03
2024-01-22T10:58:35.430Z,38.51
2024-01-22T11:01:03.369Z,38.77
2024-01-22T11:03:31.584Z,38.22
2024-01-22T11:05:59.324Z,38.50
2024-01-22T11:08:27.205Z,38.48
2024-01-22T11:10:55.172Z,38.53
2024-01-22T11:13:22.831Z,39.07
2024-01-22T11:15:50.397Z,39.12
2024-01-22T11:18:18.187Z,39.21
2024-01-22T11:20:45.967Z,40.01
2024-01-22T11:23:13.788Z,40.18
2024-01-22T11:25:41.758Z,40.01
2024-01-22T11:28:09.419Z,40.17
2024-01-22T11:30:37.093Z,39.89
2024-01-22T11:33:05.009Z,39.68
2024-01-22T11:35:32.968Z,40.77
2024-01-22T11:38:00.874Z,41.24
2024-01-22T11:40:28.441Z,41.31
2024-01-22T11:42:56.501Z,41.23
2024-01-22T11:45:29.948Z,41.55
2024-01-22T11:48:00.624Z,40.62
2024-01-22T11:50:29.215Z,41.04
2024-01-22T11:52:57.285Z,40.90
2024-01-22T11:55:25.046Z,41.74
2024-01-22T11:57:53.739Z,42.14
2024-01-22T12:00:21.919Z,42.26
2024-01-22T12:02:49.776Z,42.64
2024-01-22T12:05:17.947Z,42.23
2024-01-22T12:07:45.610Z,42.60
2024-01-22T12:10:13.992Z,43.00
2024-01-22T12:12:41.544Z,43.05
2024-01-22T12:15:09.249Z,43.45
2024-01-22T12:17:36.895Z,43.64
2024-01-22T12:20:04.694Z,43.75
2024-01-22T12:22:32.397Z,43.51
2024-01-22T12:25:00.057Z,44.02
2024-01-22T12:27:28.100Z,44.17
2024-01-22T12:29:56.018Z,44.53
2024-01-22T12:32:23.793Z,45.09
2024-01-22T12:34:51.741Z,44.96
2024-01-22T12:37:19.608Z,45.24
2024-01-22T12:39:48.257Z,45.72
2024-01-22T12:42:16.619Z,45.66
2024-01-22T12:44:44.435Z,45.98
2024-01-22T12:47:12.387Z,46.09
2024-01-22T12:49:40.274Z,45.85
2024-01-22T12:52:08.732Z,46.27
2024-01-22T12:54:36.526Z,46.13
2024-01-22T12:57:05.509Z,46.00
2024-01-22T12:59:34.731Z,46.70
2024-01-22T13:02:02.969Z,46.81
2024-01-22T13:04:31.080Z,46.90
2024-01-22T13:06:58.935Z,47.77
2024-01-22T13:09:26.785Z,48.24
2024-01-22T13:11:54.342Z,48.43
2024-01-22T13:14:25.374Z,48.36
2024-01-22T13:16:53.746Z,48.39
2024-01-22T13:19:21.589Z,48.21
2024-01-22T13:21:49.482Z,48.40
2024-01-22T13:24:17.044Z,49.56
2024-01-22T13:26:45.257Z,49.49
2024-01-22T13:29:13.078Z,49.18
2024-01-22T13:31:40.777Z,49.30
2024-01-22T13:34:08.742Z,49.07
2024-01-22T13:36:36.600Z,48.82
2024-01-22T13:39:04.586Z,48.77
2024-01-22T13:41:32.302Z,48.66
2024-01-22T13:43:59.865Z,49.02
2024-01-22T13:46:27.517Z,48.76
2024-01-22T13:48:55.854Z,48.46
2024-01-22T13:51:23.785Z,48.43
2024-01-22T13:53:51.376Z,48.33
2024-01-22T13:56:19.189Z,48.29
2024-01-22T13:58:46.846Z,48.64
2024-01-22T14:01:14.486Z,48.35
2024-01-22T14:03:42.292Z,48.32
2024-01-22T14:06:10.115Z,48.38
2024-01-22T14:08:38.644Z,48.32
2024-01-22T14:11:07.011Z,47.83
2024-01-22T14:13:34.858Z,47.75
2024-01-22T14:16:02.948Z,48.28
2024-01-22T14:18:31.612Z,48.13
2024-01-22T14:20:59.417Z,48.01
2024-01-22T14:23:27.047Z,47.42
2024-01-22T14:25:54.904Z,47.13
2024-01-22T14:28:22.571Z,47.01
2024-01-22T14:30:50.144Z,46.64
2024-01-22T14:33:17.936Z,46.80
2024-01-22T14:35:46.067Z,47.08
2024-01-22T14:38:15.491Z,46.96
2024-01-22T14:40:44.868Z,47.27
2024-01-22T14:43:12.943Z,47.46
2024-01-22T14:45:40.497Z,47.56
2024-01-22T14:48:08.188Z,47.54
2024-01-22T14:50:35.920Z,47.67
2024-01-22T14:53:05.005Z,47.74
2024-01-22T14:55:32.986Z,47.92
2024-01-22T14:58:00.648Z,48.27
2024-01-22T15:00:28.427Z,47.93
2024-01-22T15:02:56.128Z,48.41
2024-01-22T15:05:23.966Z,48.58
2024-01-22T15:07:51.957Z,48.45
2024-01-22T15:10:19.975Z,48.48
2024-01-22T15:12:47.847Z,49.15
2024-01-22T15:15:15.864Z,49.13
2024-01-22T15:17:43.946Z,49.35
2024-01-22T15:20:12.334Z,49.39
2024-01-22T15:22:40.229Z,49.53
2024-01-22T15:25:08.136Z,49.63
2024-01-22T15:27:36.014Z,49.88
2024-01-22T15:30:03.905Z,50.09
2024-01-22T15:32:31.664Z,50.43
2024-01-22T15:34:59.512Z,50.33
2024-01-22T15:37:27.533Z,50.48
2024-01-22T15:39:55.692Z,50.78
2024-01-22T15:42:23.304Z,50.88
2024-01-22T15:44:51.267Z,50.95
2024-01-22T15:47:19.195Z,51.11
2024-01-22T15:49:46.914Z,51.41
2024-01-22T15:52:15.523Z,51.43
2024-01-22T15:54:44.643Z,51.35
2024-01-22T15:57:12.547Z,51.52
2024-01-22T15:59:40.177Z,51.34
2024-01-22T16:02:07.728Z,51.51
2024-01-22T16:04:35.524Z,51.44
2024-01-22T16:07:10.532Z,51.76
2024-01-22T16:09:41.694Z,52.05
2024-01-22T16:12:09.801Z,52.41
2024-01-22T16:14:38.370Z,52.26
2024-01-22T16:17:07.129Z,52.45
2024-01-22T16:19:35.076Z,52.69
2024-01-22T16:22:03.046Z,52.83
2024-01-22T16:24:30.928Z,52.85
2024-01-22T16:26:58.811Z,53.00
2024-01-22T16:29:26.444Z,53.28
2024-01-22T16:31:54.203Z,53.43
2024-01-22T16:34:22.277Z,53.55
2024-01-22T16:36:50.094Z,53.85
2024-01-22T16:39:17.557Z,54.03
2024-01-22T16:41:45.096Z,53.95
2024-01-22T16:44:12.938Z,53.87
2024-01-22T16:46:40.682Z,54.05
2024-01-22T16:49:08.430Z,53.94
2024-01-22T16:51:36.208Z,54.12
2024-01-22T16:54:03.998Z,54.15
2024-01-22T16:56:31.851Z,54.23
2024-01-22T16:58:59.513Z,54.04
2024-01-22T17:01:27.177Z,54.44
2024-01-22T17:03:55.284Z,54.35
2024-01-22T17:06:22.941Z,54.63
2024-01-22T17:08:50.828Z,54.56
2024-01-22T17:11:18.623Z,54.47
2024-01-22T17:13:46.380Z,54.88
2024-01-22T17:16:14.778Z,54.76
2024-01-22T17:18:42.591Z,54.74
2024-01-22T17:21:10.434Z,55.08
2024-01-22T17:23:38.541Z,55.28
2024-01-22T17:26:06.943Z,55.56
2024-01-22T17:28:34.504Z,55.66
2024-01-22T17:31:02.375Z,55.68
2024-01-22T17:33:31.221Z,55.63
2024-01-22T17:35:59.041Z,55.99
2024-01-22T17:38:26.877Z,56.21
2024-01-22T17:40:54.656Z,56.41
2024-01-22T17:43:22.722Z,56.56
2024-01-22T17:45:50.696Z,56.81
2024-01-22T17:48:18.458Z,57.19
2024-01-22T17:50:46.362Z,57.28
2024-01-22T17:53:14.193Z,57.73
2024-01-22T17:55:41.852Z,58.09
2024-01-22T17:58:09.512Z,58.27
2024-01-22T18:00:37.317Z,58.66
2024-01-22T18:03:05.197Z,59.08
2024-01-22T18:05:33.107Z,58.93
2024-01-22T18:08:00.780Z,59.13
2024-01-22T18:10:28.441Z,59.40
2024-01-22T18:12:56.098Z,59.72
2024-01-22T18:15:23.781Z,59.98
2024-01-22T18:17:51.705Z,60.32
2024-01-22T18:20:19.491Z,60.69
2024-01-22T18:22:47.160Z,61.16
2024-01-22T18:25:14.811Z,61.24
2024-01-22T18:27:42.832Z,61.58
2024-01-22T18:30:10.746Z,61.84
2024-01-22T18:32:38.419Z,61.90
2024-01-22T18:35:06.166Z,62.14
2024-01-22T18:37:33.956Z,62.66
2024-01-22T18:40:01.602Z,62.82
2024-01-22T18:42:29.295Z,63.12
2024-01-22T18:44:57.038Z,63.39
2024-01-22T18:47:26.178Z,63.70
2024-01-22T18:49:53.805Z,63.74
2024-01-22T18:52:21.443Z,63.76
2024-01-22T18:54:49.009Z,63.73
2024-01-22T18:57:16.634Z,64.19
2024-01-22T18:59:44.416Z,64.12
2024-01-22T19:02:11.978Z,64.22
2024-01-22T19:04:39.743Z,64.68
2024-01-22T19:07:07.713Z,64.66
2024-01-22T19:09:35.391Z,65.10
2024-01-22T19:12:03.051Z,65.14
2024-01-22T19:14:30.684Z,65.21
2024-01-22T19:16:58.250Z,65.40
2024-01-22T19:19:26.092Z,65.49
2024-01-22T19:21:54.087Z,65.60
2024-01-22T19:24:21.826Z,65.53
2024-01-22T19:26:49.551Z,65.37
2024-01-22T19:29:17.067Z,65.22
2024-01-22T19:31:44.635Z,64.92
2024-01-22T19:34:12.386Z,65.23
2024-01-22T19:36:40.145Z,65.36
2024-01-22T19:39:07.772Z,65.22
2024-01-22T19:41:35.580Z,65.64
2024-01-22T19:44:03.136Z,65.93
2024-01-22T19:46:30.769Z,65.99
2024-01-22T19:48:58.791Z,66.17
2024-01-22T19:51:26.749Z,66.34
2024-01-22T19:53:54.228Z,66.52
2024-01-22T19:56:21.850Z,66.51
2024-01-22T19:58:49.518Z,66.53
2024-01-22T20:01:17.172Z,66.49
2024-01-22T20:03:45.086Z,66.56
2024-01-22T20:06:14.057Z,66.52
2024-01-22T20:08:41.808Z,66.40
2024-01-22T20:11:09.472Z,66.23
2024-01-22T20:13:37.434Z,65.98
2024-01-22T20:16:05.091Z,65.90
2024-01-22T20:18:32.807Z,66.11
2024-01-22T20:21:00.637Z,65.95
2024-01-22T20:23:28.178Z,66.14
2024-01-22T20:25:55.855Z,66.51
2024-01-22T20:28:23.503Z,66.60
2024-01-22T20:30:51.118Z,66.66
2024-01-22T20:33:18.923Z,66.95
2024-01-22T20:35:48.043Z,67.08
2024-01-22T20:38:17.117Z,67.29
2024-01-22T20:40:44.774Z,67.28
2024-01-22T20:43:12.437Z,67.54
2024-01-22T20:45:40.029Z,67.45
2024-01-22T20:48:07.954Z,67.69
2024-01-22T20:50:35.718Z,67.55
2024-01-22T20:53:03.291Z,67.90
2024-01-22T20:55:31.871Z,67.74
2024-01-22T20:57:59.825Z,67.98
2024-01-22T21:00:27.851Z,68.06
2024-01-22T21:02:55.779Z,68.13
2024-01-22T21:05:23.375Z,68.20
2024-01-22T21:07:50.995Z,68.02
2024-01-22T21:10:18.750Z,68.25
2024-01-22T21:12:46.619Z,68.18
2024-01-22T21:15:15.039Z,68.31
2024-01-22T21:17:42.928Z,68.34
2024-01-22T21:20:10.823Z,68.43
2024-01-22T21:22:38.488Z,68.48
2024-01-22T21:25:06.455Z,68.59
2024-01-22T21:27:34.091Z,68.59
2024-01-22T21:30:01.821Z,68.53
2024-01-22T21:32:29.565Z,68.58
2024-01-22T21:34:57.231Z,68.65
2024-01-22T21:37:25.104Z,68.69
2024-01-22T21:39:52.652Z,68.80
2024-01-22T21:42:20.271Z,68.91
2024-01-22T21:44:48.063Z,69.20
2024-01-22T21:47:15.626Z,69.40
2024-01-22T21:49:43.353Z,70.05
2024-01-22T21:52:11.049Z,70.11
2024-01-22T21:54:39.059Z,70.40
2024-01-22T21:57:07.006Z,70.64
2024-01-22T21:59:35.052Z,71.05
2024-01-22T22:02:02.809Z,71.65
2024-01-22T22:04:30.571Z,71.79
2024-01-22T22:06:58.357Z,72.15
2024-01-22T22:09:26.229Z,72.46
2024-01-22T22:11:54.527Z,72.48
2024-01-22T22:14:22.151Z,73.23
2024-01-22T22:16:50.107Z,73.54
2024-01-22T22:19:17.712Z,73.65
2024-01-22T22:21:45.943Z,74.25
2024-01-22T22:24:13.548Z,74.46
2024-01-22T22:26:41.269Z,74.19
2024-01-22T22:29:08.820Z,74.25
2024-01-22T22:31:36.547Z,74.45
2024-01-22T22:34:04.532Z,74.51
2024-01-22T22:36:32.472Z,74.77
2024-01-22T22:39:00.224Z,74.66
2024-01-22T22:41:28.261Z,74.90
2024-01-22T22:43:55.810Z,75.24
2024-01-22T22:46:23.368Z,75.41
2024-01-22T22:48:51.112Z,75.72
2024-01-22T22:51:18.931Z,76.12
2024-01-22T22:53:46.561Z,76.24
2024-01-22T22:56:14.125Z,76.95
2024-01-22T22:58:41.782Z,76.94
2024-01-22T23:01:09.550Z,77.25
2024-01-22T23:03:37.640Z,77.23
2024-01-22T23:06:05.408Z,77.23
2024-01-22T23:08:33.140Z,77.44
2024-01-22T23:11:00.702Z,77.48
2024-01-22T23:13:28.263Z,77.50
2024-01-22T23:15:55.917Z,77.44
2024-01-22T23:18:23.619Z,77.66
2024-01-22T23:20:51.367Z,77.63
2024-01-22T23:23:19.013Z,77.74
2024-01-22T23:25:46.865Z,77.66
2024-01-22T23:28:14.442Z,77.97
2024-01-22T23:30:42.141Z,77.76
2024-01-22T23:33:09.988Z,78.24
2024-01-22T23:35:37.971Z,77.93
2024-01-22T23:38:05.588Z,78.22
2024-01-22T23:40:33.259Z,78.29
2024-01-22T23:43:00.910Z,78.28
2024-01-22T23:45:28.934Z,78.12
2024-01-22T23:47:56.607Z,78.03
2024-01-22T23:50:24.412Z,78.27
2024-01-22T23:52:51.982Z,78.20
2024-01-22T23:55:19.628Z,78.03
2024-01-22T23:57:47.188Z,78.21
